createdAt,value
2023-02-17T00:00:58.256Z,29.15
2023-02-17T00:03:25.510Z,29.23
2023-02-17T00:05:53.140Z,30.63
2023-02-17T00:08:20.136Z,36.10
2023-02-17T00:10:58.466Z,34.92
2023-02-17T00:13:25.798Z,36.95
2023-02-17T00:15:52.980Z,35.00
2023-02-17T00:18:19.920Z,35.22
2023-02-17T00:20:46.847Z,38.75
2023-02-17T00:23:13.776Z,33.08
2023-02-17T00:25:41.101Z,32.22
2023-02-17T00:28:08.051Z,27.38
2023-02-17T00:30:34.971Z,32.83
2023-02-17T00:33:01.854Z,26.63
2023-02-17T00:35:28.720Z,30.73
2023-02-17T00:37:55.584Z,31.35
2023-02-17T00:40:22.498Z,33.20
2023-02-17T00:42:49.280Z,36.17
2023-02-17T00:45:16.416Z,31.73
2023-02-17T00:47:43.294Z,34.47
2023-02-17T00:50:10.384Z,33.05
2023-02-17T00:52:37.221Z,34.72
2023-02-17T00:55:04.320Z,35.22
2023-02-17T00:57:32.557Z,31.75
2023-02-17T00:59:59.537Z,36.55
2023-02-17T01:02:26.696Z,28.98
2023-02-17T01:04:53.902Z,27.23
2023-02-17T01:07:20.739Z,30.52
2023-02-17T01:09:47.609Z,30.83
2023-02-17T01:12:14.633Z,26.52
2023-02-17T01:14:41.521Z,30.63
2023-02-17T01:17:08.397Z,27.80
2023-02-17T01:19:35.297Z,27.63
2023-02-17T01:22:02.390Z,25.70
2023-02-17T01:24:29.357Z,29.20
2023-02-17T01:26:56.314Z,27.52
2023-02-17T01:29:23.206Z,27.42
2023-02-17T01:31:50.217Z,30.52
2023-02-17T01:34:17.216Z,28.08
2023-02-17T01:36:44.112Z,27.08
2023-02-17T01:39:14.233Z,26.75
2023-02-17T01:41:41.278Z,26.77
2023-02-17T01:44:23.179Z,25.23
2023-02-17T01:46:55.193Z,26.45
2023-02-17T01:49:24.908Z,28.00
2023-02-17T01:51:57.364Z,26.52
2023-02-17T01:54:59.118Z,24.42
2023-02-17T01:57:32.917Z,25.25
2023-02-17T02:00:00.152Z,29.25
2023-02-17T02:02:30.292Z,27.27
2023-02-17T02:04:57.554Z,30.15
2023-02-17T02:07:36.215Z,28.10
2023-02-17T02:10:03.807Z,29.73
2023-02-17T02:12:36.631Z,30.88
2023-02-17T02:15:17.655Z,32.45
2023-02-17T02:18:21.714Z,29.98
2023-02-17T02:21:00.515Z,30.25
2023-02-17T02:23:52.261Z,32.20
2023-02-17T02:26:21.891Z,32.22
2023-02-17T02:29:03.306Z,31.33
2023-02-17T02:31:56.713Z,27.90
2023-02-17T02:34:37.588Z,31.08
2023-02-17T02:37:16.972Z,24.63
2023-02-17T02:39:52.473Z,29.13
2023-02-17T02:42:22.939Z,26.98
2023-02-17T02:44:50.811Z,32.17
2023-02-17T02:47:42.554Z,32.63
2023-02-17T02:50:17.019Z,32.30
2023-02-17T02:53:08.488Z,30.67
2023-02-17T02:55:51.939Z,33.33
2023-02-17T02:58:37.520Z,35.40
2023-02-17T03:03:58.842Z,36.22
2023-02-17T03:06:53.315Z,33.15
2023-02-17T03:09:24.846Z,34.15
2023-02-17T03:11:52.599Z,34.40
2023-02-17T03:27:46.786Z,33.35
2023-02-17T03:30:15.151Z,38.28
2023-02-17T03:32:42.784Z,36.25
2023-02-17T03:35:09.644Z,39.60
2023-02-17T03:37:36.532Z,39.05
2023-02-17T03:40:04.005Z,42.05
2023-02-17T03:42:30.856Z,38.33
2023-02-17T03:44:57.786Z,39.40
2023-02-17T03:47:24.871Z,38.47
2023-02-17T03:49:52.413Z,38.10
2023-02-17T03:52:19.297Z,41.88
2023-02-17T03:54:46.284Z,36.13
2023-02-17T03:57:13.062Z,42.35
2023-02-17T03:59:39.950Z,43.00
2023-02-17T04:02:06.792Z,35.88
2023-02-17T04:04:33.680Z,39.10
2023-02-17T04:07:00.495Z,35.33
2023-02-17T04:09:27.424Z,41.72
2023-02-17T04:11:54.243Z,37.53
2023-02-17T04:14:21.289Z,36.47
2023-02-17T04:16:48.238Z,41.88
2023-02-17T04:19:15.050Z,37.33
2023-02-17T04:21:41.983Z,42.92
2023-02-17T04:24:08.881Z,38.22
2023-02-17T04:26:35.796Z,35.50
2023-02-17T04:29:04.552Z,35.28
2023-02-17T04:31:31.590Z,32.70
2023-02-17T04:33:58.567Z,36.53
2023-02-17T04:36:25.449Z,39.17
2023-02-17T04:38:52.405Z,36.95
2023-02-17T04:41:19.245Z,36.15
2023-02-17T04:43:46.094Z,34.65
2023-02-17T04:46:13.072Z,41.08
2023-02-17T04:48:40.061Z,39.80
2023-02-17T04:51:06.965Z,41.35
2023-02-17T04:53:33.881Z,40.08
2023-02-17T04:56:00.850Z,42.05
2023-02-17T04:58:27.880Z,38.88
2023-02-17T05:00:54.806Z,40.90
2023-02-17T05:03:21.748Z,42.25
2023-02-17T05:05:49.688Z,36.42
2023-02-17T05:08:16.468Z,39.33
2023-02-17T05:10:43.359Z,43.63
2023-02-17T05:13:10.149Z,43.53
2023-02-17T05:15:37.033Z,44.33
2023-02-17T05:18:05.038Z,38.58
2023-02-17T05:20:31.927Z,44.55
2023-02-17T05:22:58.810Z,44.65
2023-02-17T05:25:25.726Z,44.65
2023-02-17T05:27:52.821Z,47.05
2023-02-17T05:30:20.059Z,47.67
2023-02-17T05:32:47.067Z,44.70
2023-02-17T05:35:13.892Z,47.75
2023-02-17T05:37:40.833Z,51.92
2023-02-17T05:40:08.924Z,49.83
2023-02-17T05:42:35.718Z,45.70
2023-02-17T05:45:02.603Z,49.60
2023-02-17T05:47:29.522Z,48.70
2023-02-17T05:49:56.442Z,39.03
2023-02-17T05:52:23.283Z,39.92
2023-02-17T05:54:50.212Z,41.05
2023-02-17T05:57:17.074Z,38.83
2023-02-17T05:59:44.099Z,39.28
2023-02-17T06:02:11.025Z,36.65
2023-02-17T06:04:38.368Z,37.70
2023-02-17T06:07:05.256Z,35.63
2023-02-17T06:09:32.136Z,38.03
2023-02-17T06:11:59.021Z,40.90
2023-02-17T06:14:25.888Z,41.50
2023-02-17T06:16:53.913Z,38.22
2023-02-17T06:19:20.803Z,42.42
2023-02-17T06:21:47.670Z,46.80
2023-02-17T06:24:14.538Z,50.38
2023-02-17T06:26:41.492Z,52.83
2023-02-17T06:29:08.306Z,62.50
2023-02-17T06:31:35.232Z,51.15
2023-02-17T06:34:02.102Z,52.55
2023-02-17T06:36:28.943Z,59.28
2023-02-17T06:38:55.807Z,50.70
2023-02-17T06:41:22.544Z,57.50
2023-02-17T06:43:49.492Z,71.20
2023-02-17T06:46:16.453Z,62.45
2023-02-17T06:48:46.376Z,53.35
2023-02-17T06:51:13.284Z,50.80
2023-02-17T06:53:40.164Z,54.25
2023-02-17T06:56:07.558Z,53.95
2023-02-17T06:58:36.688Z,58.80
2023-02-17T07:01:05.149Z,46.42
2023-02-17T07:03:32.650Z,51.58
2023-02-17T07:06:00.096Z,42.58
2023-02-17T07:08:27.009Z,40.45
2023-02-17T07:10:53.875Z,40.50
2023-02-17T07:13:20.842Z,39.50
2023-02-17T07:15:47.802Z,36.55
2023-02-17T07:18:14.550Z,39.00
2023-02-17T07:20:41.575Z,43.50
2023-02-17T07:23:08.587Z,39.03
2023-02-17T07:25:35.521Z,38.03
2023-02-17T07:28:02.643Z,37.70
2023-02-17T07:30:29.790Z,36.70
2023-02-17T07:32:56.719Z,38.28
2023-02-17T07:35:23.767Z,47.47
2023-02-17T07:37:51.746Z,45.45
2023-02-17T07:40:18.988Z,41.28
2023-02-17T07:42:45.870Z,41.67
2023-02-17T07:45:13.751Z,45.80
2023-02-17T07:47:40.751Z,45.22
2023-02-17T07:50:08.818Z,41.13
2023-02-17T07:52:35.730Z,39.53
2023-02-17T07:55:02.820Z,44.45
2023-02-17T07:57:30.581Z,38.33
2023-02-17T07:59:57.478Z,40.13
2023-02-17T08:02:24.448Z,44.17
2023-02-17T08:04:52.734Z,35.38
2023-02-17T08:07:19.778Z,37.60
2023-02-17T08:10:05.345Z,39.72
2023-02-17T08:12:50.975Z,34.42
2023-02-17T08:15:17.899Z,33.95
2023-02-17T08:17:44.763Z,34.47
2023-02-17T08:30:16.838Z,31.60
2023-02-17T08:32:54.589Z,36.78
2023-02-17T08:35:22.745Z,41.40
2023-02-17T08:37:50.421Z,33.65
2023-02-17T08:40:18.821Z,35.33
2023-02-17T08:42:45.693Z,41.63
2023-02-17T08:45:16.047Z,45.17
2023-02-17T08:47:43.157Z,46.47
2023-02-17T08:50:16.070Z,44.25
2023-02-17T08:52:43.016Z,37.15
2023-02-17T08:55:10.073Z,36.00
2023-02-17T08:57:37.213Z,34.97
2023-02-17T09:00:08.887Z,36.78
2023-02-17T09:02:37.666Z,35.53
2023-02-17T09:05:06.319Z,36.90
2023-02-17T09:07:33.282Z,36.90
2023-02-17T09:10:00.861Z,44.10
2023-02-17T09:12:27.644Z,40.92
2023-02-17T09:14:54.623Z,42.20
2023-02-17T09:17:21.613Z,41.00
2023-02-17T09:19:48.586Z,35.58
2023-02-17T09:22:30.755Z,35.90
2023-02-17T09:24:58.721Z,34.35
2023-02-17T09:27:25.637Z,40.22
2023-02-17T09:29:52.482Z,32.47
2023-02-17T09:32:19.469Z,67.55
2023-02-17T09:34:53.171Z,38.22
2023-02-17T09:37:20.357Z,39.20
2023-02-17T09:39:48.879Z,34.25
2023-02-17T09:42:23.762Z,61.60
2023-02-17T09:45:15.481Z,39.35
2023-02-17T09:47:50.259Z,40.33
2023-02-17T09:50:23.753Z,34.90
2023-02-17T09:53:11.767Z,32.03
2023-02-17T09:55:48.259Z,31.67
2023-02-17T09:58:32.636Z,34.20
2023-02-17T10:01:03.863Z,34.65
2023-02-17T10:03:45.185Z,34.00
2023-02-17T10:06:39.074Z,33.50
2023-02-17T10:09:27.152Z,33.05
2023-02-17T10:12:07.212Z,33.42
2023-02-17T10:14:43.783Z,32.50
2023-02-17T10:17:18.424Z,32.08
2023-02-17T10:20:10.887Z,33.45
2023-02-17T10:22:40.048Z,34.70
2023-02-17T10:25:33.095Z,36.85
2023-02-17T10:28:10.783Z,34.67
2023-02-17T10:30:47.519Z,36.22
2023-02-17T10:33:37.287Z,34.90
2023-02-17T10:36:32.938Z,34.40
2023-02-17T10:39:20.164Z,36.20
2023-02-17T10:41:49.557Z,35.38
2023-02-17T10:44:23.214Z,35.53
2023-02-17T10:46:51.339Z,34.97
2023-02-17T10:49:34.622Z,34.95
2023-02-17T10:52:10.772Z,33.92
2023-02-17T10:54:42.264Z,36.95
2023-02-17T10:57:12.841Z,35.80
2023-02-17T10:59:43.039Z,43.95
2023-02-17T11:02:25.110Z,36.97
2023-02-17T11:04:56.348Z,41.28
2023-02-17T11:07:32.552Z,33.65
2023-02-17T11:10:02.748Z,37.03
2023-02-17T11:12:42.272Z,32.60
2023-02-17T11:15:21.940Z,34.85
2023-02-17T11:17:49.275Z,34.25
2023-02-17T11:20:16.452Z,34.08
2023-02-17T11:22:49.076Z,33.95
2023-02-17T11:25:26.904Z,33.58
2023-02-17T11:27:58.075Z,34.33
2023-02-17T11:30:27.511Z,35.15
2023-02-17T11:32:55.343Z,35.13
2023-02-17T11:35:37.503Z,34.05
2023-02-17T11:38:11.980Z,32.75
2023-02-17T11:40:39.415Z,32.22
2023-02-17T11:43:06.797Z,33.53
2023-02-17T11:45:59.171Z,34.60
2023-02-17T11:48:35.759Z,33.55
2023-02-17T11:51:33.648Z,33.60
2023-02-17T11:54:06.383Z,36.03
2023-02-17T11:56:39.466Z,36.35
2023-02-17T11:59:25.254Z,33.30
2023-02-17T12:02:12.085Z,34.65
2023-02-17T12:04:52.939Z,32.83
2023-02-17T12:07:40.322Z,33.40
2023-02-17T12:10:24.508Z,32.45
2023-02-17T12:13:32.658Z,34.33
2023-02-17T12:16:08.947Z,33.78
2023-02-17T12:18:53.572Z,32.42
2023-02-17T12:21:34.469Z,31.40
2023-02-17T12:24:10.423Z,34.83
2023-02-17T12:26:43.628Z,31.95
2023-02-17T12:29:28.620Z,30.70
2023-02-17T12:32:18.894Z,31.42
2023-02-17T12:35:03.911Z,29.92
2023-02-17T12:37:33.222Z,29.27
2023-02-17T12:40:04.586Z,29.75
2023-02-17T12:42:43.588Z,30.40
2023-02-17T12:45:13.644Z,31.23
2023-02-17T12:48:24.251Z,29.65
2023-02-17T12:50:59.796Z,30.92
2023-02-17T12:53:51.586Z,30.90
2023-02-17T12:56:34.621Z,42.95
2023-02-17T12:59:15.192Z,28.35
2023-02-17T13:01:49.757Z,28.73
2023-02-17T13:04:20.656Z,28.35
2023-02-17T13:06:54.745Z,27.08
2023-02-17T13:09:33.152Z,26.83
2023-02-17T13:12:24.973Z,28.40
2023-02-17T13:14:56.286Z,28.35
2023-02-17T13:17:51.910Z,29.50
2023-02-17T13:20:18.673Z,28.38
2023-02-17T13:22:47.666Z,26.20
2023-02-17T13:25:31.058Z,26.92
2023-02-17T13:28:01.324Z,30.17
2023-02-17T13:30:40.825Z,25.73
2023-02-17T13:33:20.448Z,29.48
2023-02-17T13:35:48.126Z,28.85
2023-02-17T13:38:26.955Z,26.08
2023-02-17T13:41:02.523Z,30.35
2023-02-17T13:43:33.722Z,26.95
2023-02-17T13:46:02.100Z,26.25
2023-02-17T13:48:34.877Z,27.13
2023-02-17T13:51:07.215Z,24.70
2023-02-17T13:53:40.459Z,27.48
2023-02-17T13:56:10.823Z,27.48
2023-02-17T13:58:40.299Z,26.23
2023-02-17T14:01:14.293Z,27.75
2023-02-17T14:03:42.680Z,26.23
2023-02-17T14:06:21.557Z,27.55
2023-02-17T14:08:48.818Z,27.05
2023-02-17T14:11:20.122Z,28.10
2023-02-17T14:13:51.441Z,25.20
2023-02-17T14:16:27.862Z,27.27
2023-02-17T14:19:10.464Z,27.15
2023-02-17T14:21:44.550Z,27.33
2023-02-17T14:24:30.821Z,29.75
2023-02-17T14:27:08.280Z,28.75
2023-02-17T14:29:39.908Z,27.50
2023-02-17T14:32:07.034Z,26.92
2023-02-17T14:34:36.588Z,27.83
2023-02-17T14:37:10.848Z,29.75
2023-02-17T14:42:04.741Z,30.10
2023-02-17T14:44:31.657Z,27.98
2023-02-17T14:46:58.959Z,29.95
2023-02-17T14:49:25.854Z,29.25
2023-02-17T14:51:52.715Z,30.35
2023-02-17T14:54:19.757Z,29.42
2023-02-17T14:57:07.287Z,31.55
2023-02-17T14:59:34.245Z,32.35
2023-02-17T15:02:01.192Z,31.10
2023-02-17T15:04:28.274Z,30.42
2023-02-17T15:06:55.332Z,33.33
2023-02-17T15:09:30.510Z,31.35
2023-02-17T15:11:58.606Z,33.60
2023-02-17T15:29:50.040Z,33.15
2023-02-17T15:32:23.293Z,32.03
2023-02-17T15:34:50.425Z,32.77
2023-02-17T15:37:17.315Z,31.13
2023-02-17T15:39:44.265Z,31.58
2023-02-17T15:42:14.307Z,32.75
2023-02-17T15:44:51.131Z,36.28
2023-02-17T15:47:20.060Z,35.65
2023-02-17T15:49:47.248Z,36.10
2023-02-17T15:52:14.904Z,34.22
2023-02-17T15:54:42.898Z,39.42
2023-02-17T15:57:23.569Z,37.50
2023-02-17T15:59:50.736Z,40.05
2023-02-17T16:02:23.379Z,39.20
2023-02-17T16:04:50.702Z,50.58
2023-02-17T16:07:17.687Z,60.58
2023-02-17T16:09:44.567Z,49.35
2023-02-17T16:12:26.651Z,60.17
2023-02-17T16:14:54.740Z,50.47
2023-02-17T16:17:21.638Z,70.80
2023-02-17T16:19:48.492Z,43.40
2023-02-17T16:22:15.370Z,48.45
2023-02-17T16:24:42.269Z,45.80
2023-02-17T16:27:14.605Z,40.83
2023-02-17T16:29:41.889Z,45.83
2023-02-17T16:32:12.846Z,46.70
2023-02-17T16:34:40.403Z,45.05
2023-02-17T16:37:15.232Z,49.47
2023-02-17T16:39:42.358Z,42.08
2023-02-17T16:42:12.368Z,39.47
2023-02-17T16:44:39.228Z,43.15
2023-02-17T16:47:09.126Z,43.55
2023-02-17T16:49:39.881Z,45.97
2023-02-17T16:52:21.281Z,44.92
2023-02-17T16:54:48.103Z,32.60
2023-02-17T16:57:18.491Z,36.53
2023-02-17T16:59:46.473Z,39.83
2023-02-17T17:02:14.305Z,39.30
2023-02-17T17:04:41.222Z,35.28
2023-02-17T17:07:13.819Z,43.05
2023-02-17T17:09:40.978Z,36.95
2023-02-17T17:12:10.997Z,54.92
2023-02-17T17:14:37.965Z,54.78
2023-02-17T17:17:04.943Z,57.90
2023-02-17T17:19:31.784Z,65.30
2023-02-17T17:21:58.661Z,64.75
2023-02-17T17:24:25.652Z,79.63
2023-02-17T17:26:52.667Z,69.82
2023-02-17T17:29:19.784Z,70.07
2023-02-17T17:31:47.220Z,76.57
2023-02-17T17:34:14.314Z,65.05
2023-02-17T17:36:42.471Z,59.20
2023-02-17T17:39:16.295Z,60.80
2023-02-17T17:41:43.298Z,63.17
2023-02-17T17:44:10.710Z,59.78
2023-02-17T17:46:38.919Z,66.70
2023-02-17T17:49:10.192Z,73.72
2023-02-17T17:51:38.714Z,68.53
2023-02-17T17:54:07.043Z,67.15
2023-02-17T17:56:38.890Z,67.65
2023-02-17T17:59:06.786Z,67.43
2023-02-17T18:01:34.064Z,69.15
2023-02-17T18:04:01.692Z,73.47
2023-02-17T18:06:35.547Z,93.78
2023-02-17T18:09:05.382Z,60.15
2023-02-17T18:11:33.455Z,75.70
2023-02-17T18:14:05.362Z,72.43
2023-02-17T18:16:33.622Z,73.45
2023-02-17T18:19:02.328Z,68.82
2023-02-17T18:21:29.270Z,59.25
2023-02-17T18:23:56.293Z,64.50
2023-02-17T18:26:23.409Z,66.70
2023-02-17T18:28:50.269Z,71.63
2023-02-17T18:31:17.329Z,55.67
2023-02-17T18:33:44.276Z,55.63
2023-02-17T18:36:17.399Z,56.60
2023-02-17T18:38:45.219Z,56.08
2023-02-17T18:41:41.193Z,55.83
2023-02-17T18:44:11.066Z,52.22
2023-02-17T18:46:39.217Z,51.05
2023-02-17T18:49:06.553Z,53.83
2023-02-17T18:51:33.595Z,50.45
2023-02-17T18:54:01.591Z,50.75
2023-02-17T18:56:31.426Z,48.75
2023-02-17T18:58:58.835Z,51.65
2023-02-17T19:01:29.118Z,47.13
2023-02-17T19:03:56.452Z,53.05
2023-02-17T19:06:30.079Z,50.90
2023-02-17T19:08:57.150Z,50.00
2023-02-17T19:11:25.478Z,51.65
2023-02-17T19:13:53.420Z,61.20
2023-02-17T19:16:25.904Z,50.13
2023-02-17T19:18:53.045Z,56.95
2023-02-17T19:21:20.769Z,51.92
2023-02-17T19:23:48.716Z,59.17
2023-02-17T19:26:16.865Z,52.08
2023-02-17T19:28:45.153Z,53.53
2023-02-17T19:31:15.573Z,55.60
2023-02-17T19:33:44.368Z,51.03
2023-02-17T19:36:14.636Z,57.17
2023-02-17T19:38:41.655Z,44.88
2023-02-17T19:41:10.834Z,50.42
2023-02-17T19:43:37.824Z,46.35
2023-02-17T19:46:05.398Z,51.28
2023-02-17T19:48:33.115Z,44.67
2023-02-17T19:51:02.795Z,39.75
2023-02-17T19:53:31.586Z,39.95
2023-02-17T19:56:13.448Z,43.08
2023-02-17T19:58:41.923Z,41.80
2023-02-17T20:01:11.970Z,42.17
2023-02-17T20:03:39.503Z,45.03
2023-02-17T20:06:13.218Z,43.50
2023-02-17T20:08:40.333Z,44.65
2023-02-17T20:11:09.545Z,42.17
2023-02-17T20:13:45.721Z,40.60
2023-02-17T20:16:15.439Z,41.42
2023-02-17T20:18:44.978Z,41.38
2023-02-17T20:21:14.768Z,39.65
2023-02-17T20:23:41.875Z,42.25
2023-02-17T20:26:14.081Z,35.28
2023-02-17T20:28:41.345Z,40.13
2023-02-17T20:31:09.738Z,35.45
2023-02-17T20:33:36.864Z,38.40
2023-02-17T20:36:05.829Z,36.80
2023-02-17T20:38:33.229Z,40.72
2023-02-17T20:41:00.479Z,36.88
2023-02-17T20:43:27.409Z,38.65
2023-02-17T20:45:54.754Z,38.17
2023-02-17T20:48:22.053Z,38.17
2023-02-17T20:50:49.008Z,35.97
2023-02-17T20:53:15.857Z,41.70
2023-02-17T20:55:42.668Z,40.88
2023-02-17T20:58:10.804Z,33.75
2023-02-17T21:00:37.990Z,33.42
2023-02-17T21:03:05.301Z,35.40
2023-02-17T21:05:32.438Z,34.45
2023-02-17T21:07:59.521Z,39.25
2023-02-17T21:10:29.440Z,43.88
2023-02-17T21:12:56.591Z,45.63
2023-02-17T21:15:23.900Z,36.13
2023-02-17T21:17:51.230Z,40.28
2023-02-17T21:20:20.921Z,38.08
2023-02-17T21:22:48.304Z,38.78
2023-02-17T21:25:15.332Z,36.25
2023-02-17T21:27:42.360Z,38.17
2023-02-17T21:30:10.964Z,36.72
2023-02-17T21:32:38.581Z,34.47
2023-02-17T21:35:06.454Z,33.65
2023-02-17T21:37:34.452Z,33.88
2023-02-17T21:40:01.325Z,34.50
2023-02-17T21:42:46.808Z,43.35
2023-02-17T21:45:13.757Z,43.58
2023-02-17T21:47:40.633Z,36.28
2023-02-17T21:50:07.947Z,34.67
2023-02-17T21:52:34.977Z,32.05
2023-02-17T21:55:01.881Z,30.83
2023-02-17T21:57:28.895Z,29.90
2023-02-17T21:59:55.693Z,29.00
2023-02-17T22:02:22.627Z,28.52
2023-02-17T22:04:49.550Z,28.02
2023-02-17T22:07:16.425Z,28.52
2023-02-17T22:09:43.306Z,29.25
2023-02-17T22:12:10.131Z,28.23
2023-02-17T22:14:36.934Z,30.42
2023-02-17T22:17:04.037Z,28.00
2023-02-17T22:19:31.654Z,28.30
2023-02-17T22:21:58.804Z,28.73
2023-02-17T22:24:27.364Z,26.98
2023-02-17T22:26:54.882Z,34.00
2023-02-17T22:29:21.982Z,27.65
2023-02-17T22:31:50.517Z,27.33
2023-02-17T22:34:17.629Z,26.95
2023-02-17T22:36:44.915Z,26.50
2023-02-17T22:39:12.404Z,26.15
2023-02-17T22:41:39.920Z,27.27
2023-02-17T22:44:07.767Z,27.20
2023-02-17T22:46:35.362Z,25.33
2023-02-17T22:49:02.541Z,26.45
2023-02-17T22:51:32.123Z,27.38
2023-02-17T22:54:01.107Z,27.42
2023-02-17T22:56:28.889Z,26.25
2023-02-17T22:58:58.041Z,27.50
2023-02-17T23:01:25.451Z,26.45
2023-02-17T23:03:54.546Z,26.17
2023-02-17T23:06:27.981Z,27.17
2023-02-17T23:08:55.606Z,28.85
2023-02-17T23:11:44.161Z,30.25
2023-02-17T23:14:13.539Z,29.02
2023-02-17T23:16:40.598Z,30.67
2023-02-17T23:19:09.287Z,27.52
2023-02-17T23:21:36.766Z,26.58
2023-02-17T23:24:04.670Z,26.45
2023-02-17T23:26:31.595Z,27.83
2023-02-17T23:28:59.635Z,31.27
2023-02-17T23:31:26.637Z,26.27
2023-02-17T23:33:53.522Z,27.55
2023-02-17T23:36:20.629Z,25.35
2023-02-17T23:38:47.511Z,28.10
2023-02-17T23:41:14.358Z,26.25
2023-02-17T23:43:41.641Z,27.13
2023-02-17T23:46:08.914Z,24.70
2023-02-17T23:48:36.068Z,27.15
2023-02-17T23:51:04.775Z,26.42
2023-02-17T23:53:32.986Z,26.77
2023-02-17T23:56:14.624Z,27.27
2023-02-17T23:58:41.896Z,26.38
